sensor_id;sensor_type;location;lat;lon;timestamp;pressure;altitude;pressure_sealevel;temperature;humidity
9764;BME280;4921;43.214;27.936;2023-08-24T00:00:33;100937.09;;;26.35;100.00
9764;BME280;4921;43.214;27.936;2023-08-24T00:03:02;100931.09;;;26.33;100.00
9764;BME280;4921;43.214;27.936;2023-08-24T00:05:33;100928.59;;;26.31;100.00
9764;BME280;4921;43.214;27.936;2023-08-24T00:08:00;100941.69;;;26.28;100.00
9764;BME280;4921;43.214;27.936;2023-08-24T00:10:27;100939.00;;;26.28;100.00
9764;BME280;4921;43.214;27.936;2023-08-24T00:12:54;100935.69;;;26.26;100.00
9764;BME280;4921;43.214;27.936;2023-08-24T00:15:22;100939.66;;;26.17;100.00
9764;BME280;4921;43.214;27.936;2023-08-24T00:17:49;100939.25;;;26.20;100.00
9764;BME280;4921;43.214;27.936;2023-08-24T00:20:18;100939.66;;;26.17;100.00
9764;BME280;4921;43.214;27.936;2023-08-24T00:22:46;100942.59;;;26.15;100.00
9764;BME280;4921;43.214;27.936;2023-08-24T00:25:14;100942.41;;;26.10;100.00
9764;BME280;4921;43.214;27.936;2023-08-24T00:27:41;100935.34;;;26.16;100.00
9764;BME280;4921;43.214;27.936;2023-08-24T00:30:10;100940.50;;;26.17;100.00
9764;BME280;4921;43.214;27.936;2023-08-24T00:32:37;100937.81;;;26.17;100.00
9764;BME280;4921;43.214;27.936;2023-08-24T00:35:05;100926.84;;;26.12;100.00
9764;BME280;4921;43.214;27.936;2023-08-24T00:37:34;100930.75;;;26.16;100.00
9764;BME280;4921;43.214;27.936;2023-08-24T00:40:02;100942.38;;;26.17;100.00
9764;BME280;4921;43.214;27.936;2023-08-24T00:42:37;100941.72;;;26.21;100.00
9764;BME280;4921;43.214;27.936;2023-08-24T00:45:05;100935.69;;;26.26;100.00
9764;BME280;4921;43.214;27.936;2023-08-24T00:47:32;100937.31;;;26.27;100.00
9764;BME280;4921;43.214;27.936;2023-08-24T00:50:01;100930.91;;;26.28;100.00
9764;BME280;4921;43.214;27.936;2023-08-24T00:52:31;100936.28;;;26.28;100.00
9764;BME280;4921;43.214;27.936;2023-08-24T00:55:00;100939.22;;;26.26;100.00
9764;BME280;4921;43.214;27.936;2023-08-24T00:57:28;100934.63;;;26.27;100.00
9764;BME280;4921;43.214;27.936;2023-08-24T00:59:56;100931.31;;;26.25;100.00
9764;BME280;4921;43.214;27.936;2023-08-24T01:02:23;100926.53;;;26.27;100.00
9764;BME280;4921;43.214;27.936;2023-08-24T01:04:50;100935.06;;;26.24;100.00
9764;BME280;4921;43.214;27.936;2023-08-24T01:07:17;100926.38;;;26.22;100.00
9764;BME280;4921;43.214;27.936;2023-08-24T01:09:45;100925.13;;;26.24;100.00
9764;BME280;4921;43.214;27.936;2023-08-24T01:12:21;100922.44;;;26.24;100.00
9764;BME280;4921;43.214;27.936;2023-08-24T01:14:59;100920.38;;;26.20;100.00
9764;BME280;4921;43.214;27.936;2023-08-24T01:17:30;100922.47;;;26.18;100.00
9764;BME280;4921;43.214;27.936;2023-08-24T01:19:57;100920.38;;;26.20;100.00
9764;BME280;4921;43.214;27.936;2023-08-24T01:22:32;100925.78;;;26.20;100.00
9764;BME280;4921;43.214;27.936;2023-08-24T01:25:06;100917.88;;;26.18;100.00
9764;BME280;4921;43.214;27.936;2023-08-24T01:27:40;100926.78;;;26.19;100.00
9764;BME280;4921;43.214;27.936;2023-08-24T01:30:08;100922.63;;;26.23;100.00
9764;BME280;4921;43.214;27.936;2023-08-24T01:32:36;100920.16;;;26.21;100.00
9764;BME280;4921;43.214;27.936;2023-08-24T01:35:04;100911.72;;;26.11;100.00
9764;BME280;4921;43.214;27.936;2023-08-24T01:37:32;100902.34;;;26.07;100.00
9764;BME280;4921;43.214;27.936;2023-08-24T01:40:03;100909.19;;;26.16;100.00
9764;BME280;4921;43.214;27.936;2023-08-24T01:42:35;100905.50;;;26.11;100.00
9764;BME280;4921;43.214;27.936;2023-08-24T01:45:06;100905.72;;;26.09;100.00
9764;BME280;4921;43.214;27.936;2023-08-24T01:47:36;100907.56;;;26.09;100.00
9764;BME280;4921;43.214;27.936;2023-08-24T01:50:05;100906.94;;;26.07;100.00
9764;BME280;4921;43.214;27.936;2023-08-24T01:52:34;100897.22;;;25.99;100.00
9764;BME280;4921;43.214;27.936;2023-08-24T01:55:01;100896.59;;;25.97;100.00
9764;BME280;4921;43.214;27.936;2023-08-24T01:57:28;100896.59;;;25.97;100.00
9764;BME280;4921;43.214;27.936;2023-08-24T01:59:55;100897.22;;;25.99;100.00
9764;BME280;4921;43.214;27.936;2023-08-24T02:02:24;100885.03;;;25.90;100.00
9764;BME280;4921;43.214;27.936;2023-08-24T02:04:51;100889.16;;;25.93;100.00
9764;BME280;4921;43.214;27.936;2023-08-24T02:07:18;100890.63;;;25.89;100.00
9764;BME280;4921;43.214;27.936;2023-08-24T02:09:45;100899.56;;;25.89;100.00
9764;BME280;4921;43.214;27.936;2023-08-24T02:12:12;100902.03;;;25.91;100.00
9764;BME280;4921;43.214;27.936;2023-08-24T02:14:39;100899.16;;;25.86;100.00
9764;BME280;4921;43.214;27.936;2023-08-24T02:17:06;100893.34;;;25.82;100.00
9764;BME280;4921;43.214;27.936;2023-08-24T02:19:35;100888.81;;;25.83;100.00
9764;BME280;4921;43.214;27.936;2023-08-24T02:22:02;100896.66;;;25.84;100.00
9764;BME280;4921;43.214;27.936;2023-08-24T02:24:30;100899.59;;;25.83;100.00
9764;BME280;4921;43.214;27.936;2023-08-24T02:26:57;100895.06;;;25.77;100.00
9764;BME280;4921;43.214;27.936;2023-08-24T02:29:24;100891.91;;;25.80;100.00
9764;BME280;4921;43.214;27.936;2023-08-24T02:31:51;100896.06;;;25.82;100.00
9764;BME280;4921;43.214;27.936;2023-08-24T02:34:18;100905.00;;;25.76;100.00
9764;BME280;4921;43.214;27.936;2023-08-24T02:36:47;100896.94;;;25.69;100.00
9764;BME280;4921;43.214;27.936;2023-08-24T02:39:14;100902.13;;;25.71;100.00
9764;BME280;4921;43.214;27.936;2023-08-24T02:41:41;100895.28;;;25.68;100.00
9764;BME280;4921;43.214;27.936;2023-08-24T02:44:08;100898.19;;;25.67;100.00
9764;BME280;4921;43.214;27.936;2023-08-24T02:46:35;100898.03;;;25.62;100.00
9764;BME280;4921;43.214;27.936;2023-08-24T02:49:02;100902.16;;;25.58;100.00
9764;BME280;4921;43.214;27.936;2023-08-24T02:51:29;100902.56;;;25.61;100.00
9764;BME280;4921;43.214;27.936;2023-08-24T02:54:02;100905.06;;;25.56;100.00
9764;BME280;4921;43.214;27.936;2023-08-24T02:56:29;100893.91;;;25.53;100.00
9764;BME280;4921;43.214;27.936;2023-08-24T02:58:56;100897.84;;;25.50;100.00
9764;BME280;4921;43.214;27.936;2023-08-24T03:01:24;100888.53;;;25.53;100.00
9764;BME280;4921;43.214;27.936;2023-08-24T03:03:52;100893.28;;;25.57;100.00
9764;BME280;4921;43.214;27.936;2023-08-24T03:06:19;100888.53;;;25.53;100.00
9764;BME280;4921;43.214;27.936;2023-08-24T03:08:46;100895.53;;;25.54;100.00
9764;BME280;4921;43.214;27.936;2023-08-24T03:11:14;100890.38;;;25.52;100.00
9764;BME280;4921;43.214;27.936;2023-08-24T03:13:41;100898.69;;;25.51;100.00
9764;BME280;4921;43.214;27.936;2023-08-24T03:16:08;100897.47;;;25.47;100.00
9764;BME280;4921;43.214;27.936;2023-08-24T03:18:36;100896.63;;;25.46;100.00
9764;BME280;4921;43.214;27.936;2023-08-24T03:21:03;100894.94;;;25.45;100.00
9764;BME280;4921;43.214;27.936;2023-08-24T03:23:30;100899.94;;;25.42;100.00
9764;BME280;4921;43.214;27.936;2023-08-24T03:25:58;100890.00;;;25.36;100.00
9764;BME280;4921;43.214;27.936;2023-08-24T03:28:26;100901.78;;;25.35;100.00
9764;BME280;4921;43.214;27.936;2023-08-24T03:30:53;100905.53;;;25.34;100.00
9764;BME280;4921;43.214;27.936;2023-08-24T03:33:21;100906.78;;;25.31;100.00
9764;BME280;4921;43.214;27.936;2023-08-24T03:35:48;100904.09;;;25.31;100.00
9764;BME280;4921;43.214;27.936;2023-08-24T03:38:16;100905.72;;;25.32;100.00
9764;BME280;4921;43.214;27.936;2023-08-24T03:40:43;100908.41;;;25.32;100.00
9764;BME280;4921;43.214;27.936;2023-08-24T03:43:10;100903.25;;;25.31;100.00
9764;BME280;4921;43.214;27.936;2023-08-24T03:45:39;100903.28;;;25.24;100.00
9764;BME280;4921;43.214;27.936;2023-08-24T03:48:06;100906.78;;;25.31;100.00
9764;BME280;4921;43.214;27.936;2023-08-24T03:50:33;100916.50;;;25.32;100.00
9764;BME280;4921;43.214;27.936;2023-08-24T03:53:00;100912.56;;;25.35;100.00
9764;BME280;4921;43.214;27.936;2023-08-24T03:55:27;100918.16;;;25.40;100.00
9764;BME280;4921;43.214;27.936;2023-08-24T03:57:54;100909.03;;;25.47;100.00
9764;BME280;4921;43.214;27.936;2023-08-24T04:00:22;100906.31;;;25.54;100.00
9764;BME280;4921;43.214;27.936;2023-08-24T04:02:51;100908.38;;;25.58;100.00
9764;BME280;4921;43.214;27.936;2023-08-24T04:05:18;100915.41;;;25.66;100.00
9764;BME280;4921;43.214;27.936;2023-08-24T04:07:45;100905.63;;;25.71;100.00
9764;BME280;4921;43.214;27.936;2023-08-24T04:10:13;100912.69;;;25.79;100.00
9764;BME280;4921;43.214;27.936;2023-08-24T04:12:40;100913.44;;;25.86;100.00
9764;BME280;4921;43.214;27.936;2023-08-24T04:15:08;100904.31;;;25.94;100.00
9764;BME280;4921;43.214;27.936;2023-08-24T04:17:35;100902.00;;;25.97;100.00
9764;BME280;4921;43.214;27.936;2023-08-24T04:20:05;100903.41;;;26.06;100.00
9764;BME280;4921;43.214;27.936;2023-08-24T04:22:33;100901.72;;;26.12;100.00
9764;BME280;4921;43.214;27.936;2023-08-24T04:25:00;100902.53;;;26.19;100.00
9764;BME280;4921;43.214;27.936;2023-08-24T04:27:27;100906.03;;;26.26;100.00
9764;BME280;4921;43.214;27.936;2023-08-24T04:29:54;100900.03;;;26.24;100.00
9764;BME280;4921;43.214;27.936;2023-08-24T04:32:22;100914.22;;;26.37;100.00
9764;BME280;4921;43.214;27.936;2023-08-24T04:34:49;100910.88;;;26.42;100.00
9764;BME280;4921;43.214;27.936;2023-08-24T04:37:17;100909.19;;;26.48;100.00
9764;BME280;4921;43.214;27.936;2023-08-24T04:39:44;100909.16;;;26.54;100.00
9764;BME280;4921;43.214;27.936;2023-08-24T04:42:11;100903.91;;;26.59;100.00
9764;BME280;4921;43.214;27.936;2023-08-24T04:44:38;100903.03;;;26.65;100.00
9764;BME280;4921;43.214;27.936;2023-08-24T04:47:06;100902.16;;;26.71;100.00
9764;BME280;4921;43.214;27.936;2023-08-24T04:49:33;100906.94;;;26.76;100.00
9764;BME280;4921;43.214;27.936;2023-08-24T04:52:00;100909.78;;;26.81;100.00
9764;BME280;4921;43.214;27.936;2023-08-24T04:54:29;100905.38;;;26.86;100.00
9764;BME280;4921;43.214;27.936;2023-08-24T04:56:55;100914.47;;;26.92;100.00
9764;BME280;4921;43.214;27.936;2023-08-24T04:59:22;100912.16;;;26.95;100.00
9764;BME280;4921;43.214;27.936;2023-08-24T05:01:50;100912.91;;;27.02;100.00
9764;BME280;4921;43.214;27.936;2023-08-24T05:04:17;100922.63;;;27.10;100.00
9764;BME280;4921;43.214;27.936;2023-08-24T05:06:44;100912.19;;;27.13;100.00
9764;BME280;4921;43.214;27.936;2023-08-24T05:09:11;100915.03;;;27.18;100.00
9764;BME280;4921;43.214;27.936;2023-08-24T05:11:40;100920.38;;;27.25;100.00
9764;BME280;4921;43.214;27.936;2023-08-24T05:14:07;100923.03;;;27.32;100.00
9764;BME280;4921;43.214;27.936;2023-08-24T05:16:34;100920.56;;;27.30;100.00
9764;BME280;4921;43.214;27.936;2023-08-24T05:19:00;100923.59;;;27.40;100.00
9764;BME280;4921;43.214;27.936;2023-08-24T05:21:28;100924.03;;;27.37;100.00
9764;BME280;4921;43.214;27.936;2023-08-24T05:23:55;100923.44;;;27.29;100.00
9764;BME280;4921;43.214;27.936;2023-08-24T05:26:22;100922.31;;;27.43;100.00
9764;BME280;4921;43.214;27.936;2023-08-24T05:28:52;100929.16;;;27.20;100.00
9764;BME280;4921;43.214;27.936;2023-08-24T05:31:20;100929.34;;;27.44;100.00
9764;BME280;4921;43.214;27.936;2023-08-24T05:33:46;100933.56;;;27.58;100.00
9764;BME280;4921;43.214;27.936;2023-08-24T05:36:13;100934.09;;;27.66;100.00
9764;BME280;4921;43.214;27.936;2023-08-24T05:38:41;100932.75;;;27.75;100.00
9764;BME280;4921;43.214;27.936;2023-08-24T05:41:12;100930.56;;;27.84;100.00
9764;BME280;4921;43.214;27.936;2023-08-24T05:43:40;100929.66;;;27.90;100.00
9764;BME280;4921;43.214;27.936;2023-08-24T05:46:08;100938.53;;;27.97;100.00
9764;BME280;4921;43.214;27.936;2023-08-24T05:48:35;100933.50;;;28.01;100.00
9764;BME280;4921;43.214;27.936;2023-08-24T05:51:02;100929.88;;;28.07;100.00
9764;BME280;4921;43.214;27.936;2023-08-24T05:53:31;100930.69;;;28.07;100.00
9764;BME280;4921;43.214;27.936;2023-08-24T05:55:58;100934.00;;;28.09;100.00
9764;BME280;4921;43.214;27.936;2023-08-24T05:58:26;100936.84;;;28.14;100.00
9764;BME280;4921;43.214;27.936;2023-08-24T06:00:57;100936.13;;;28.19;100.00
9764;BME280;4921;43.214;27.936;2023-08-24T06:03:25;100942.94;;;27.91;100.00
9764;BME280;4921;43.214;27.936;2023-08-24T06:05:53;100954.41;;;27.87;100.00
9764;BME280;4921;43.214;27.936;2023-08-24T06:08:20;100957.25;;;27.99;100.00
9764;BME280;4921;43.214;27.936;2023-08-24T06:10:47;100956.75;;;28.20;100.00
9764;BME280;4921;43.214;27.936;2023-08-24T06:13:14;100948.69;;;28.31;100.00
9764;BME280;4921;43.214;27.936;2023-08-24T06:15:42;100954.78;;;28.27;100.00
9764;BME280;4921;43.214;27.936;2023-08-24T06:18:08;100955.78;;;27.96;100.00
9764;BME280;4921;43.214;27.936;2023-08-24T06:20:37;100950.75;;;27.81;100.00
9764;BME280;4921;43.214;27.936;2023-08-24T06:23:04;100958.63;;;27.65;100.00
9764;BME280;4921;43.214;27.936;2023-08-24T06:25:31;100961.06;;;27.73;100.00
9764;BME280;4921;43.214;27.936;2023-08-24T06:27:59;100959.38;;;27.72;100.00
9764;BME280;4921;43.214;27.936;2023-08-24T06:30:29;100956.75;;;27.83;100.00
9764;BME280;4921;43.214;27.936;2023-08-24T06:32:58;100956.56;;;27.67;100.00
9764;BME280;4921;43.214;27.936;2023-08-24T06:35:25;100961.09;;;27.84;100.00
9764;BME280;4921;43.214;27.936;2023-08-24T06:37:53;100962.16;;;28.02;100.00
9764;BME280;4921;43.214;27.936;2023-08-24T06:40:20;100959.63;;;28.07;100.00
9764;BME280;4921;43.214;27.936;2023-08-24T06:42:48;100957.56;;;28.20;100.00
9764;BME280;4921;43.214;27.936;2023-08-24T06:45:15;100963.75;;;28.09;100.00
9764;BME280;4921;43.214;27.936;2023-08-24T06:47:43;100960.00;;;27.92;100.00
9764;BME280;4921;43.214;27.936;2023-08-24T06:50:11;100973.13;;;27.88;100.00
9764;BME280;4921;43.214;27.936;2023-08-24T06:52:38;100970.34;;;27.95;100.00
9764;BME280;4921;43.214;27.936;2023-08-24T06:55:08;100978.31;;;27.72;100.00
9764;BME280;4921;43.214;27.936;2023-08-24T06:57:35;100977.84;;;27.93;100.00
9764;BME280;4921;43.214;27.936;2023-08-24T07:00:03;100978.31;;;28.08;100.00
9764;BME280;4921;43.214;27.936;2023-08-24T07:02:34;100980.91;;;28.03;100.00
9764;BME280;4921;43.214;27.936;2023-08-24T07:05:02;100977.72;;;28.06;100.00
9764;BME280;4921;43.214;27.936;2023-08-24T07:07:31;100985.47;;;28.03;100.00
9764;BME280;4921;43.214;27.936;2023-08-24T07:09:58;100985.69;;;27.83;100.00
9764;BME280;4921;43.214;27.936;2023-08-24T07:12:26;100986.16;;;27.98;100.00
9764;BME280;4921;43.214;27.936;2023-08-24T07:14:53;100990.72;;;27.79;100.00
9764;BME280;4921;43.214;27.936;2023-08-24T07:17:20;100996.34;;;27.96;100.00
9764;BME280;4921;43.214;27.936;2023-08-24T07:19:47;100988.84;;;27.98;100.00
9764;BME280;4921;43.214;27.936;2023-08-24T07:22:14;100987.88;;;27.92;100.00
9764;BME280;4921;43.214;27.936;2023-08-24T07:24:41;100995.63;;;28.07;100.00
9764;BME280;4921;43.214;27.936;2023-08-24T07:27:08;101004.59;;;28.19;100.00
9764;BME280;4921;43.214;27.936;2023-08-24T07:29:36;101008.75;;;28.04;100.00
9764;BME280;4921;43.214;27.936;2023-08-24T07:32:03;101007.53;;;28.18;100.00
9764;BME280;4921;43.214;27.936;2023-08-24T07:34:30;101010.75;;;28.26;100.00
9764;BME280;4921;43.214;27.936;2023-08-24T07:36:57;101010.66;;;28.03;100.00
9764;BME280;4921;43.214;27.936;2023-08-24T07:39:24;101006.19;;;27.90;100.00
9764;BME280;4921;43.214;27.936;2023-08-24T07:41:51;101012.81;;;27.94;100.00
9764;BME280;4921;43.214;27.936;2023-08-24T07:44:18;101009.50;;;27.92;100.00
9764;BME280;4921;43.214;27.936;2023-08-24T07:46:47;101009.81;;;28.03;100.00
9764;BME280;4921;43.214;27.936;2023-08-24T07:49:15;101009.25;;;27.94;100.00
9764;BME280;4921;43.214;27.936;2023-08-24T07:51:41;101006.09;;;27.79;100.00
9764;BME280;4921;43.214;27.936;2023-08-24T07:54:09;100986.25;;;27.49;100.00
9764;BME280;4921;43.214;27.936;2023-08-24T07:56:36;101001.00;;;27.71;100.00
9764;BME280;4921;43.214;27.936;2023-08-24T07:59:03;101020.72;;;27.71;100.00
9764;BME280;4921;43.214;27.936;2023-08-24T08:01:30;101013.69;;;27.88;100.00
9764;BME280;4921;43.214;27.936;2023-08-24T08:03:58;101006.28;;;27.84;100.00
9764;BME280;4921;43.214;27.936;2023-08-24T08:06:26;100999.28;;;27.94;100.00
9764;BME280;4921;43.214;27.936;2023-08-24T08:08:53;100990.66;;;27.86;100.00
9764;BME280;4921;43.214;27.936;2023-08-24T08:11:20;101003.34;;;28.04;100.00
9764;BME280;4921;43.214;27.936;2023-08-24T08:13:47;101009.19;;;28.19;100.00
9764;BME280;4921;43.214;27.936;2023-08-24T08:16:14;101015.59;;;28.06;100.00
9764;BME280;4921;43.214;27.936;2023-08-24T08:18:41;101011.44;;;28.04;100.00
9764;BME280;4921;43.214;27.936;2023-08-24T08:21:10;101010.78;;;28.08;100.00
9764;BME280;4921;43.214;27.936;2023-08-24T08:23:38;101001.47;;;28.04;100.00
9764;BME280;4921;43.214;27.936;2023-08-24T08:26:05;100992.03;;;27.88;100.00
9764;BME280;4921;43.214;27.936;2023-08-24T08:28:32;100999.94;;;28.08;100.00
9764;BME280;4921;43.214;27.936;2023-08-24T08:31:00;100998.50;;;28.24;100.00
9764;BME280;4921;43.214;27.936;2023-08-24T08:33:28;100997.91;;;28.40;100.00
9764;BME280;4921;43.214;27.936;2023-08-24T08:35:55;100999.75;;;28.10;100.00
9764;BME280;4921;43.214;27.936;2023-08-24T08:38:23;100991.16;;;27.94;100.00
9764;BME280;4921;43.214;27.936;2023-08-24T08:40:53;100996.25;;;27.84;100.00
9764;BME280;4921;43.214;27.936;2023-08-24T08:43:21;100999.19;;;27.83;100.00
9764;BME280;4921;43.214;27.936;2023-08-24T08:45:49;100999.13;;;27.89;100.00
9764;BME280;4921;43.214;27.936;2023-08-24T08:48:18;100996.66;;;27.88;100.00
9764;BME280;4921;43.214;27.936;2023-08-24T08:50:46;100999.66;;;27.98;100.00
9764;BME280;4921;43.214;27.936;2023-08-24T08:53:14;101003.50;;;27.90;100.00
9764;BME280;4921;43.214;27.936;2023-08-24T08:55:44;101000.56;;;27.92;100.00
9764;BME280;4921;43.214;27.936;2023-08-24T08:58:12;100995.72;;;27.76;100.00
9764;BME280;4921;43.214;27.936;2023-08-24T09:00:39;101000.25;;;27.82;100.00
9764;BME280;4921;43.214;27.936;2023-08-24T09:03:08;101008.00;;;27.97;100.00
9764;BME280;4921;43.214;27.936;2023-08-24T09:05:37;101004.16;;;28.04;100.00
9764;BME280;4921;43.214;27.936;2023-08-24T09:08:05;101007.47;;;28.06;100.00
9764;BME280;4921;43.214;27.936;2023-08-24T09:10:34;101002.38;;;28.16;100.00
9764;BME280;4921;43.214;27.936;2023-08-24T09:13:03;100992.94;;;28.19;100.00
9764;BME280;4921;43.214;27.936;2023-08-24T09:15:34;100998.84;;;28.16;100.00
9764;BME280;4921;43.214;27.936;2023-08-24T09:18:02;101004.94;;;28.11;100.00
9764;BME280;4921;43.214;27.936;2023-08-24T09:20:30;101007.31;;;28.19;100.00
9764;BME280;4921;43.214;27.936;2023-08-24T09:22:57;101015.91;;;28.16;100.00
9764;BME280;4921;43.214;27.936;2023-08-24T09:25:24;101013.19;;;28.16;100.00
9764;BME280;4921;43.214;27.936;2023-08-24T09:27:57;101004.53;;;28.26;100.00
9764;BME280;4921;43.214;27.936;2023-08-24T09:30:30;101006.13;;;28.15;100.00
9764;BME280;4921;43.214;27.936;2023-08-24T09:33:01;101010.50;;;27.98;100.00
9764;BME280;4921;43.214;27.936;2023-08-24T09:35:34;101006.78;;;28.11;100.00
9764;BME280;4921;43.214;27.936;2023-08-24T09:38:15;100998.28;;;28.25;100.00
9764;BME280;4921;43.214;27.936;2023-08-24T09:40:45;100994.00;;;28.36;100.00
9764;BME280;4921;43.214;27.936;2023-08-24T09:43:13;100998.84;;;28.63;100.00
9764;BME280;4921;43.214;27.936;2023-08-24T09:45:49;101003.56;;;28.80;100.00
9764;BME280;4921;43.214;27.936;2023-08-24T09:48:16;100999.28;;;29.02;100.00
9764;BME280;4921;43.214;27.936;2023-08-24T09:50:44;101001.69;;;29.21;100.00
9764;BME280;4921;43.214;27.936;2023-08-24T09:53:16;101004.88;;;29.30;100.00
9764;BME280;4921;43.214;27.936;2023-08-24T09:55:49;101000.44;;;29.06;100.00
9764;BME280;4921;43.214;27.936;2023-08-24T09:58:17;100995.63;;;28.96;100.00
9764;BME280;4921;43.214;27.936;2023-08-24T10:00:46;101005.75;;;29.12;100.00
9764;BME280;4921;43.214;27.936;2023-08-24T10:03:17;100989.50;;;29.12;100.00
9764;BME280;4921;43.214;27.936;2023-08-24T10:05:50;100994.72;;;29.25;100.00
9764;BME280;4921;43.214;27.936;2023-08-24T10:08:21;100992.16;;;29.30;100.00
9764;BME280;4921;43.214;27.936;2023-08-24T10:10:53;100998.75;;;29.34;100.00
9764;BME280;4921;43.214;27.936;2023-08-24T10:13:31;101000.88;;;29.32;100.00
9764;BME280;4921;43.214;27.936;2023-08-24T10:16:03;100997.97;;;29.04;100.00
9764;BME280;4921;43.214;27.936;2023-08-24T10:18:33;101000.69;;;29.04;100.00
9764;BME280;4921;43.214;27.936;2023-08-24T10:21:00;100998.47;;;29.13;100.00
9764;BME280;4921;43.214;27.936;2023-08-24T10:23:29;100993.75;;;29.08;100.00
9764;BME280;4921;43.214;27.936;2023-08-24T10:25:56;100998.97;;;29.33;100.00
9764;BME280;4921;43.214;27.936;2023-08-24T10:28:23;100994.00;;;29.65;100.00
9764;BME280;4921;43.214;27.936;2023-08-24T10:30:51;100996.25;;;29.56;100.00
9764;BME280;4921;43.214;27.936;2023-08-24T10:33:19;100990.72;;;29.51;100.00
9764;BME280;4921;43.214;27.936;2023-08-24T10:35:48;100989.53;;;29.47;100.00
9764;BME280;4921;43.214;27.936;2023-08-24T10:38:28;100984.44;;;29.97;100.00
9764;BME280;4921;43.214;27.936;2023-08-24T10:41:01;100985.31;;;30.14;100.00
9764;BME280;4921;43.214;27.936;2023-08-24T10:43:29;100983.63;;;30.25;100.00
9764;BME280;4921;43.214;27.936;2023-08-24T10:45:57;100982.44;;;29.92;100.00
9764;BME280;4921;43.214;27.936;2023-08-24T10:48:25;100977.03;;;29.69;100.00
9764;BME280;4921;43.214;27.936;2023-08-24T10:51:19;100983.66;;;30.13;100.00
9764;BME280;4921;43.214;27.936;2023-08-24T10:53:52;100985.88;;;29.76;100.00
9764;BME280;4921;43.214;27.936;2023-08-24T10:56:19;100988.41;;;30.06;100.00
9764;BME280;4921;43.214;27.936;2023-08-24T10:58:47;100984.59;;;29.67;100.00
9764;BME280;4921;43.214;27.936;2023-08-24T11:01:35;100983.91;;;29.37;100.00
9764;BME280;4921;43.214;27.936;2023-08-24T11:04:05;100978.34;;;29.32;100.00
9764;BME280;4921;43.214;27.936;2023-08-24T11:06:34;100975.63;;;29.32;100.00
9764;BME280;4921;43.214;27.936;2023-08-24T11:09:08;100968.09;;;29.46;100.00
9764;BME280;4921;43.214;27.936;2023-08-24T11:11:39;100970.94;;;29.74;100.00
9764;BME280;4921;43.214;27.936;2023-08-24T11:14:13;100956.50;;;29.85;100.00
9764;BME280;4921;43.214;27.936;2023-08-24T11:16:42;100958.47;;;29.89;100.00
9764;BME280;4921;43.214;27.936;2023-08-24T11:19:10;100950.84;;;29.86;100.00
9764;BME280;4921;43.214;27.936;2023-08-24T11:21:40;100947.50;;;29.96;100.00
9764;BME280;4921;43.214;27.936;2023-08-24T11:24:08;100925.16;;;29.77;100.00
9764;BME280;4921;43.214;27.936;2023-08-24T11:26:40;100943.53;;;29.87;100.00
9764;BME280;4921;43.214;27.936;2023-08-24T11:29:08;100945.38;;;29.98;100.00
9764;BME280;4921;43.214;27.936;2023-08-24T11:31:35;100948.19;;;30.03;100.00
9764;BME280;4921;43.214;27.936;2023-08-24T11:34:03;100943.53;;;30.15;100.00
9764;BME280;4921;43.214;27.936;2023-08-24T11:36:31;100943.91;;;30.47;100.00
9764;BME280;4921;43.214;27.936;2023-08-24T11:38:59;100933.22;;;30.29;100.00
9764;BME280;4921;43.214;27.936;2023-08-24T11:41:26;100929.16;;;29.75;100.00
9764;BME280;4921;43.214;27.936;2023-08-24T11:44:00;100927.72;;;29.72;100.00
9764;BME280;4921;43.214;27.936;2023-08-24T11:46:29;100914.88;;;29.68;100.00
9764;BME280;4921;43.214;27.936;2023-08-24T11:48:57;100904.91;;;29.57;100.00
9764;BME280;4921;43.214;27.936;2023-08-24T11:51:25;100908.66;;;29.56;100.00
9764;BME280;4921;43.214;27.936;2023-08-24T11:53:52;100913.38;;;29.72;100.00
9764;BME280;4921;43.214;27.936;2023-08-24T11:56:20;100905.44;;;29.82;100.00
9764;BME280;4921;43.214;27.936;2023-08-24T11:58:49;100901.59;;;29.55;100.00
9764;BME280;4921;43.214;27.936;2023-08-24T12:01:17;100883.75;;;28.96;100.00
9764;BME280;4921;43.214;27.936;2023-08-24T12:03:44;100895.38;;;28.73;100.00
9764;BME280;4921;43.214;27.936;2023-08-24T12:06:12;100890.78;;;28.97;100.00
9764;BME280;4921;43.214;27.936;2023-08-24T12:08:41;100893.13;;;28.82;100.00
9764;BME280;4921;43.214;27.936;2023-08-24T12:11:13;100890.19;;;28.72;100.00
9764;BME280;4921;43.214;27.936;2023-08-24T12:13:45;100897.19;;;28.49;100.00
9764;BME280;4921;43.214;27.936;2023-08-24T12:16:12;100896.84;;;28.46;100.00
9764;BME280;4921;43.214;27.936;2023-08-24T12:18:53;100892.09;;;28.41;100.00
9764;BME280;4921;43.214;27.936;2023-08-24T12:21:21;100889.34;;;28.18;100.00
9764;BME280;4921;43.214;27.936;2023-08-24T12:23:58;100880.53;;;28.23;100.00
9764;BME280;4921;43.214;27.936;2023-08-24T12:26:25;100883.75;;;28.02;100.00
9764;BME280;4921;43.214;27.936;2023-08-24T12:29:00;100882.94;;;27.83;100.00
9764;BME280;4921;43.214;27.936;2023-08-24T12:31:28;100875.94;;;27.93;100.00
9764;BME280;4921;43.214;27.936;2023-08-24T12:34:00;100876.00;;;27.87;100.00
9764;BME280;4921;43.214;27.936;2023-08-24T12:36:27;100883.28;;;28.05;100.00
9764;BME280;4921;43.214;27.936;2023-08-24T12:38:54;100878.91;;;28.04;100.00
9764;BME280;4921;43.214;27.936;2023-08-24T12:41:22;100877.69;;;27.88;100.00
9764;BME280;4921;43.214;27.936;2023-08-24T12:43:50;100877.75;;;27.81;100.00
9764;BME280;4921;43.214;27.936;2023-08-24T12:46:18;100873.63;;;27.79;100.00
9764;BME280;4921;43.214;27.936;2023-08-24T12:48:45;100887.16;;;27.79;100.00
9764;BME280;4921;43.214;27.936;2023-08-24T12:51:12;100888.50;;;27.88;100.00
9764;BME280;4921;43.214;27.936;2023-08-24T12:53:39;100879.19;;;27.84;100.00
9764;BME280;4921;43.214;27.936;2023-08-24T12:56:06;100869.94;;;27.73;100.00